sensor_id;sensor_type;location;lat;lon;timestamp;pressure;altitude;pressure_sealevel;temperature;humidity
77454;BME280;66538;53.150;18.160;2023-07-29T00:00:10;100608.46;;;15.82;82.01
77454;BME280;66538;53.150;18.160;2023-07-29T00:03:01;100614.22;;;15.79;81.98
77454;BME280;66538;53.150;18.160;2023-07-29T00:05:27;100614.73;;;15.78;82.16
77454;BME280;66538;53.150;18.160;2023-07-29T00:07:54;100614.52;;;15.78;82.23
77454;BME280;66538;53.150;18.160;2023-07-29T00:10:20;100612.52;;;15.74;82.17
77454;BME280;66538;53.150;18.160;2023-07-29T00:12:47;100617.89;;;15.74;82.40
77454;BME280;66538;53.150;18.160;2023-07-29T00:15:14;100622.38;;;15.71;82.46
77454;BME280;66538;53.150;18.160;2023-07-29T00:17:40;100621.84;;;15.68;82.32
77454;BME280;66538;53.150;18.160;2023-07-29T00:20:07;100622.92;;;15.63;82.58
77454;BME280;66538;53.150;18.160;2023-07-29T00:22:34;100623.56;;;15.61;82.44
77454;BME280;66538;53.150;18.160;2023-07-29T00:25:01;100622.00;;;15.58;82.75
77454;BME280;66538;53.150;18.160;2023-07-29T00:27:27;100625.14;;;15.56;82.87
77454;BME280;66538;53.150;18.160;2023-07-29T00:29:55;100623.84;;;15.53;82.96
77454;BME280;66538;53.150;18.160;2023-07-29T00:32:22;100619.75;;;15.50;83.07
77454;BME280;66538;53.150;18.160;2023-07-29T00:34:48;100619.64;;;15.47;83.08
77454;BME280;66538;53.150;18.160;2023-07-29T00:37:15;100627.88;;;15.45;83.18
77454;BME280;66538;53.150;18.160;2023-07-29T00:39:41;100629.09;;;15.43;83.23
77454;BME280;66538;53.150;18.160;2023-07-29T00:42:09;100630.81;;;15.40;83.10
77454;BME280;66538;53.150;18.160;2023-07-29T00:44:35;100629.66;;;15.37;83.04
77454;BME280;66538;53.150;18.160;2023-07-29T00:47:03;100636.16;;;15.34;82.96
77454;BME280;66538;53.150;18.160;2023-07-29T00:49:31;100634.84;;;15.28;82.93
77454;BME280;66538;53.150;18.160;2023-07-29T00:51:58;100637.83;;;15.24;82.98
77454;BME280;66538;53.150;18.160;2023-07-29T00:54:25;100636.42;;;15.20;83.13
77454;BME280;66538;53.150;18.160;2023-07-29T00:56:52;100642.60;;;15.20;83.49
77454;BME280;66538;53.150;18.160;2023-07-29T00:59:19;100632.59;;;15.18;83.85
77454;BME280;66538;53.150;18.160;2023-07-29T01:01:45;100633.50;;;15.18;83.63
77454;BME280;66538;53.150;18.160;2023-07-29T01:04:12;100632.95;;;15.16;83.71
77454;BME280;66538;53.150;18.160;2023-07-29T01:09:23;100635.48;;;15.09;83.44
77454;BME280;66538;53.150;18.160;2023-07-29T01:12:13;100633.44;;;15.06;83.58
77454;BME280;66538;53.150;18.160;2023-07-29T01:14:47;100631.33;;;15.05;83.70
77454;BME280;66538;53.150;18.160;2023-07-29T01:17:23;100632.40;;;15.03;83.52
77454;BME280;66538;53.150;18.160;2023-07-29T01:20:03;100633.31;;;15.00;83.42
77454;BME280;66538;53.150;18.160;2023-07-29T01:22:37;100631.17;;;14.99;83.65
77454;BME280;66538;53.150;18.160;2023-07-29T01:25:04;100633.15;;;14.98;83.47
77454;BME280;66538;53.150;18.160;2023-07-29T01:27:31;100629.77;;;14.94;83.41
77454;BME280;66538;53.150;18.160;2023-07-29T01:29:59;100627.22;;;14.90;83.50
77454;BME280;66538;53.150;18.160;2023-07-29T01:32:46;100624.89;;;14.85;83.49
77454;BME280;66538;53.150;18.160;2023-07-29T01:35:22;100621.38;;;14.79;83.75
77454;BME280;66538;53.150;18.160;2023-07-29T01:38:06;100619.98;;;14.75;83.79
77454;BME280;66538;53.150;18.160;2023-07-29T01:40:33;100617.16;;;14.70;83.91
77454;BME280;66538;53.150;18.160;2023-07-29T01:43:00;100616.68;;;14.66;83.60
77454;BME280;66538;53.150;18.160;2023-07-29T01:45:28;100616.27;;;14.62;84.02
77454;BME280;66538;53.150;18.160;2023-07-29T01:47:58;100617.46;;;14.58;84.30
77454;BME280;66538;53.150;18.160;2023-07-29T01:50:24;100615.92;;;14.59;84.38
77454;BME280;66538;53.150;18.160;2023-07-29T01:52:51;100620.30;;;14.58;84.20
77454;BME280;66538;53.150;18.160;2023-07-29T01:55:18;100623.48;;;14.54;83.68
77454;BME280;66538;53.150;18.160;2023-07-29T01:57:44;100627.87;;;14.50;83.82
77454;BME280;66538;53.150;18.160;2023-07-29T02:00:11;100625.06;;;14.44;83.86
77454;BME280;66538;53.150;18.160;2023-07-29T02:02:41;100627.50;;;14.38;83.84
77454;BME280;66538;53.150;18.160;2023-07-29T02:05:08;100636.48;;;14.33;83.87
77454;BME280;66538;53.150;18.160;2023-07-29T02:07:35;100635.66;;;14.29;84.17
77454;BME280;66538;53.150;18.160;2023-07-29T02:10:01;100639.27;;;14.25;84.15
77454;BME280;66538;53.150;18.160;2023-07-29T02:12:28;100640.23;;;14.21;83.99
77454;BME280;66538;53.150;18.160;2023-07-29T02:14:55;100641.15;;;14.17;84.00
77454;BME280;66538;53.150;18.160;2023-07-29T02:17:21;100639.45;;;14.13;84.11
77454;BME280;66538;53.150;18.160;2023-07-29T02:19:48;100639.60;;;14.10;84.20
77454;BME280;66538;53.150;18.160;2023-07-29T02:22:17;100642.85;;;14.09;84.36
77454;BME280;66538;53.150;18.160;2023-07-29T02:24:44;100646.48;;;14.07;84.43
77454;BME280;66538;53.150;18.160;2023-07-29T02:27:11;100641.11;;;14.05;84.88
77454;BME280;66538;53.150;18.160;2023-07-29T02:29:38;100643.35;;;14.04;84.78
77454;BME280;66538;53.150;18.160;2023-07-29T02:32:05;100641.62;;;14.03;84.55
77454;BME280;66538;53.150;18.160;2023-07-29T02:34:31;100637.27;;;14.01;84.55
77454;BME280;66538;53.150;18.160;2023-07-29T02:36:58;100640.88;;;13.97;84.56
77454;BME280;66538;53.150;18.160;2023-07-29T02:39:25;100636.70;;;13.93;84.37
77454;BME280;66538;53.150;18.160;2023-07-29T02:41:52;100640.23;;;13.88;84.33
77454;BME280;66538;53.150;18.160;2023-07-29T02:44:19;100638.70;;;13.83;84.36
77454;BME280;66538;53.150;18.160;2023-07-29T02:46:46;100641.33;;;13.79;84.60
77454;BME280;66538;53.150;18.160;2023-07-29T02:49:13;100643.88;;;13.76;84.64
77454;BME280;66538;53.150;18.160;2023-07-29T02:51:40;100646.51;;;13.74;84.57
77454;BME280;66538;53.150;18.160;2023-07-29T02:54:06;100649.59;;;13.72;84.69
77454;BME280;66538;53.150;18.160;2023-07-29T02:56:33;100650.23;;;13.72;85.00
77454;BME280;66538;53.150;18.160;2023-07-29T02:58:59;100649.65;;;13.72;84.93
77454;BME280;66538;53.150;18.160;2023-07-29T03:01:27;100655.65;;;13.72;85.20
77454;BME280;66538;53.150;18.160;2023-07-29T03:03:53;100659.82;;;13.75;85.05
77454;BME280;66538;53.150;18.160;2023-07-29T03:06:20;100662.91;;;13.76;85.26
77454;BME280;66538;53.150;18.160;2023-07-29T03:08:46;100666.09;;;13.74;84.84
77454;BME280;66538;53.150;18.160;2023-07-29T03:11:14;100680.02;;;13.75;84.92
77454;BME280;66538;53.150;18.160;2023-07-29T03:13:42;100680.35;;;13.73;85.16
77454;BME280;66538;53.150;18.160;2023-07-29T03:16:10;100678.98;;;13.74;85.12
77454;BME280;66538;53.150;18.160;2023-07-29T03:18:38;100676.23;;;13.75;85.26
77454;BME280;66538;53.150;18.160;2023-07-29T03:21:05;100669.53;;;13.74;85.06
77454;BME280;66538;53.150;18.160;2023-07-29T03:23:33;100678.11;;;13.77;85.12
77454;BME280;66538;53.150;18.160;2023-07-29T03:26:02;100672.73;;;13.77;84.97
77454;BME280;66538;53.150;18.160;2023-07-29T03:28:32;100672.14;;;13.77;85.05
77454;BME280;66538;53.150;18.160;2023-07-29T03:31:00;100673.60;;;13.78;85.09
77454;BME280;66538;53.150;18.160;2023-07-29T03:33:26;100673.60;;;13.78;85.00
77454;BME280;66538;53.150;18.160;2023-07-29T03:35:53;100673.30;;;13.79;85.04
77454;BME280;66538;53.150;18.160;2023-07-29T03:38:20;100676.15;;;13.79;84.92
77454;BME280;66538;53.150;18.160;2023-07-29T03:40:47;100676.62;;;13.80;84.97
77454;BME280;66538;53.150;18.160;2023-07-29T03:43:14;100673.38;;;13.83;85.08
77454;BME280;66538;53.150;18.160;2023-07-29T03:45:40;100674.32;;;13.85;84.88
77454;BME280;66538;53.150;18.160;2023-07-29T03:48:07;100672.48;;;13.88;84.79
77454;BME280;66538;53.150;18.160;2023-07-29T03:50:35;100672.61;;;13.90;84.73
77454;BME280;66538;53.150;18.160;2023-07-29T03:53:03;100671.81;;;13.93;84.80
77454;BME280;66538;53.150;18.160;2023-07-29T03:55:31;100671.25;;;13.95;84.77
77454;BME280;66538;53.150;18.160;2023-07-29T03:57:59;100675.27;;;13.97;84.84
77454;BME280;66538;53.150;18.160;2023-07-29T04:00:26;100676.81;;;14.00;85.00
77454;BME280;66538;53.150;18.160;2023-07-29T04:02:53;100676.62;;;14.01;84.86
77454;BME280;66538;53.150;18.160;2023-07-29T04:05:20;100679.65;;;14.04;84.93
77454;BME280;66538;53.150;18.160;2023-07-29T04:07:48;100679.02;;;14.06;84.91
77454;BME280;66538;53.150;18.160;2023-07-29T04:10:15;100682.90;;;14.10;84.91
77454;BME280;66538;53.150;18.160;2023-07-29T04:12:43;100679.02;;;14.15;85.03
77454;BME280;66538;53.150;18.160;2023-07-29T04:15:09;100680.79;;;14.23;85.05
77454;BME280;66538;53.150;18.160;2023-07-29T04:17:36;100683.52;;;14.32;85.11
77454;BME280;66538;53.150;18.160;2023-07-29T04:20:04;100688.23;;;14.38;85.02
77454;BME280;66538;53.150;18.160;2023-07-29T04:22:33;100688.45;;;14.47;85.09
77454;BME280;66538;53.150;18.160;2023-07-29T04:25:00;100690.38;;;14.56;85.00
77454;BME280;66538;53.150;18.160;2023-07-29T04:27:27;100696.44;;;14.64;84.85
77454;BME280;66538;53.150;18.160;2023-07-29T04:29:53;100694.79;;;14.73;84.72
77454;BME280;66538;53.150;18.160;2023-07-29T04:32:20;100699.05;;;14.79;84.65
77454;BME280;66538;53.150;18.160;2023-07-29T04:34:46;100702.05;;;14.87;84.63
77454;BME280;66538;53.150;18.160;2023-07-29T04:37:13;100703.69;;;14.94;84.71
77454;BME280;66538;53.150;18.160;2023-07-29T04:39:40;100704.86;;;15.03;84.63
77454;BME280;66538;53.150;18.160;2023-07-29T04:42:06;100705.51;;;15.10;84.73
77454;BME280;66538;53.150;18.160;2023-07-29T04:44:33;100710.14;;;15.18;84.68
77454;BME280;66538;53.150;18.160;2023-07-29T04:46:59;100709.58;;;15.25;84.77
77454;BME280;66538;53.150;18.160;2023-07-29T04:49:26;100710.48;;;15.32;84.72
77454;BME280;66538;53.150;18.160;2023-07-29T04:51:52;100713.73;;;15.39;84.64
77454;BME280;66538;53.150;18.160;2023-07-29T04:54:19;100710.78;;;15.47;84.57
77454;BME280;66538;53.150;18.160;2023-07-29T04:56:47;100714.77;;;15.57;84.58
77454;BME280;66538;53.150;18.160;2023-07-29T04:59:13;100714.87;;;15.67;84.50
77454;BME280;66538;53.150;18.160;2023-07-29T05:01:40;100716.02;;;15.75;84.46
77454;BME280;66538;53.150;18.160;2023-07-29T05:04:09;100714.39;;;15.83;84.25
77454;BME280;66538;53.150;18.160;2023-07-29T05:06:36;100712.05;;;15.91;84.27
77454;BME280;66538;53.150;18.160;2023-07-29T05:09:17;100715.41;;;16.00;84.14
77454;BME280;66538;53.150;18.160;2023-07-29T05:11:44;100715.41;;;16.08;83.78
77454;BME280;66538;53.150;18.160;2023-07-29T05:14:17;100716.44;;;16.17;83.59
77454;BME280;66538;53.150;18.160;2023-07-29T05:16:44;100716.23;;;16.24;83.36
77454;BME280;66538;53.150;18.160;2023-07-29T05:19:11;100717.52;;;16.33;83.27
77454;BME280;66538;53.150;18.160;2023-07-29T05:21:39;100713.20;;;16.42;83.07
77454;BME280;66538;53.150;18.160;2023-07-29T05:24:06;100705.63;;;16.49;82.94
77454;BME280;66538;53.150;18.160;2023-07-29T05:26:33;100705.39;;;16.58;82.69
77454;BME280;66538;53.150;18.160;2023-07-29T05:28:59;100709.09;;;16.68;82.57
77454;BME280;66538;53.150;18.160;2023-07-29T05:31:26;100710.51;;;16.78;82.40
77454;BME280;66538;53.150;18.160;2023-07-29T05:33:52;100713.16;;;16.86;82.30
77454;BME280;66538;53.150;18.160;2023-07-29T05:36:19;100714.85;;;16.96;82.15
77454;BME280;66538;53.150;18.160;2023-07-29T05:38:46;100715.09;;;17.06;82.03
77454;BME280;66538;53.150;18.160;2023-07-29T05:41:12;100720.06;;;17.16;81.92
77454;BME280;66538;53.150;18.160;2023-07-29T05:43:39;100714.31;;;17.25;81.63
77454;BME280;66538;53.150;18.160;2023-07-29T05:46:07;100713.39;;;17.35;81.46
77454;BME280;66538;53.150;18.160;2023-07-29T05:48:33;100714.32;;;17.45;81.33
77454;BME280;66538;53.150;18.160;2023-07-29T05:51:00;100716.14;;;17.55;80.96
77454;BME280;66538;53.150;18.160;2023-07-29T05:53:27;100714.77;;;17.61;80.71
77454;BME280;66538;53.150;18.160;2023-07-29T05:55:53;100716.18;;;17.72;80.73
77454;BME280;66538;53.150;18.160;2023-07-29T05:58:20;100715.87;;;17.81;80.10
77454;BME280;66538;53.150;18.160;2023-07-29T06:00:47;100715.77;;;17.89;79.80
77454;BME280;66538;53.150;18.160;2023-07-29T06:03:14;100711.02;;;17.97;79.95
77454;BME280;66538;53.150;18.160;2023-07-29T06:05:41;100714.36;;;18.06;79.59
77454;BME280;66538;53.150;18.160;2023-07-29T06:08:08;100718.77;;;18.14;79.67
77454;BME280;66538;53.150;18.160;2023-07-29T06:10:35;100717.44;;;18.22;79.59
77454;BME280;66538;53.150;18.160;2023-07-29T06:13:02;100716.83;;;18.32;79.60
77454;BME280;66538;53.150;18.160;2023-07-29T06:15:29;100716.59;;;18.43;79.31
77454;BME280;66538;53.150;18.160;2023-07-29T06:17:55;100712.76;;;18.55;79.07
77454;BME280;66538;53.150;18.160;2023-07-29T06:20:22;100721.18;;;18.67;78.67
77454;BME280;66538;53.150;18.160;2023-07-29T06:22:49;100722.58;;;18.75;78.28
77454;BME280;66538;53.150;18.160;2023-07-29T06:25:15;100724.27;;;18.84;77.95
77454;BME280;66538;53.150;18.160;2023-07-29T06:27:42;100722.17;;;18.91;77.65
77454;BME280;66538;53.150;18.160;2023-07-29T06:30:09;100720.39;;;19.00;77.49
77454;BME280;66538;53.150;18.160;2023-07-29T06:32:35;100718.02;;;19.08;77.03
77454;BME280;66538;53.150;18.160;2023-07-29T06:35:02;100711.67;;;19.14;76.77
77454;BME280;66538;53.150;18.160;2023-07-29T06:37:29;100711.70;;;19.20;76.32
77454;BME280;66538;53.150;18.160;2023-07-29T06:39:55;100712.32;;;19.30;76.39
77454;BME280;66538;53.150;18.160;2023-07-29T06:42:22;100713.66;;;19.41;76.41
77454;BME280;66538;53.150;18.160;2023-07-29T06:44:48;100716.48;;;19.55;76.43
77454;BME280;66538;53.150;18.160;2023-07-29T06:47:15;100712.83;;;19.66;75.87
77454;BME280;66538;53.150;18.160;2023-07-29T06:49:42;100714.83;;;19.76;75.39
77454;BME280;66538;53.150;18.160;2023-07-29T06:52:08;100719.52;;;19.85;75.27
77454;BME280;66538;53.150;18.160;2023-07-29T06:54:35;100719.66;;;19.94;74.96
77454;BME280;66538;53.150;18.160;2023-07-29T06:57:02;100719.08;;;20.01;74.35
77454;BME280;66538;53.150;18.160;2023-07-29T06:59:28;100713.91;;;20.05;73.98
77454;BME280;66538;53.150;18.160;2023-07-29T07:01:55;100712.27;;;20.11;73.63
77454;BME280;66538;53.150;18.160;2023-07-29T07:04:21;100713.14;;;20.22;74.13
77454;BME280;66538;53.150;18.160;2023-07-29T07:06:48;100714.61;;;20.31;73.65
77454;BME280;66538;53.150;18.160;2023-07-29T07:09:14;100707.62;;;20.39;73.31
77454;BME280;66538;53.150;18.160;2023-07-29T07:11:41;100709.67;;;20.52;72.73
77454;BME280;66538;53.150;18.160;2023-07-29T07:14:07;100705.39;;;20.61;72.78
77454;BME280;66538;53.150;18.160;2023-07-29T07:16:34;100698.91;;;20.72;72.33
77454;BME280;66538;53.150;18.160;2023-07-29T07:19:03;100695.98;;;20.85;72.15
77454;BME280;66538;53.150;18.160;2023-07-29T07:21:29;100697.75;;;20.95;71.74
77454;BME280;66538;53.150;18.160;2023-07-29T07:23:56;100703.55;;;21.07;71.31
77454;BME280;66538;53.150;18.160;2023-07-29T07:26:22;100701.80;;;21.17;70.66
77454;BME280;66538;53.150;18.160;2023-07-29T07:28:49;100705.11;;;21.25;70.48
77454;BME280;66538;53.150;18.160;2023-07-29T07:31:17;100702.84;;;21.34;69.89
77454;BME280;66538;53.150;18.160;2023-07-29T07:33:44;100703.34;;;21.42;69.62
77454;BME280;66538;53.150;18.160;2023-07-29T07:36:11;100704.98;;;21.49;69.12
77454;BME280;66538;53.150;18.160;2023-07-29T07:38:37;100702.91;;;21.54;68.78
77454;BME280;66538;53.150;18.160;2023-07-29T07:41:04;100699.27;;;21.61;68.85
77454;BME280;66538;53.150;18.160;2023-07-29T07:43:30;100695.73;;;21.67;68.61
77454;BME280;66538;53.150;18.160;2023-07-29T07:45:58;100690.88;;;21.75;68.33
77454;BME280;66538;53.150;18.160;2023-07-29T07:48:26;100693.36;;;21.83;68.29
77454;BME280;66538;53.150;18.160;2023-07-29T07:50:53;100693.09;;;21.94;68.25
77454;BME280;66538;53.150;18.160;2023-07-29T07:53:20;100689.42;;;22.05;68.32
77454;BME280;66538;53.150;18.160;2023-07-29T07:55:46;100686.13;;;22.15;67.67
77454;BME280;66538;53.150;18.160;2023-07-29T07:58:13;100684.73;;;22.23;66.16
77454;BME280;66538;53.150;18.160;2023-07-29T08:00:40;100680.31;;;22.31;66.26
77454;BME280;66538;53.150;18.160;2023-07-29T08:03:06;100679.02;;;22.38;65.83
77454;BME280;66538;53.150;18.160;2023-07-29T08:05:33;100679.02;;;22.45;65.53
77454;BME280;66538;53.150;18.160;2023-07-29T08:08:00;100674.41;;;22.54;64.90
77454;BME280;66538;53.150;18.160;2023-07-29T08:10:27;100676.18;;;22.60;64.75
77454;BME280;66538;53.150;18.160;2023-07-29T08:12:53;100672.46;;;22.68;64.22
77454;BME280;66538;53.150;18.160;2023-07-29T08:15:20;100670.59;;;22.79;63.99
77454;BME280;66538;53.150;18.160;2023-07-29T08:17:46;100672.76;;;22.88;61.99
77454;BME280;66538;53.150;18.160;2023-07-29T08:20:13;100666.52;;;22.92;61.85
77454;BME280;66538;53.150;18.160;2023-07-29T08:22:39;100665.47;;;22.99;61.33
77454;BME280;66538;53.150;18.160;2023-07-29T08:25:06;100664.17;;;23.09;62.28
77454;BME280;66538;53.150;18.160;2023-07-29T08:27:33;100656.52;;;23.20;62.15
77454;BME280;66538;53.150;18.160;2023-07-29T08:30:01;100660.88;;;23.32;61.54
77454;BME280;66538;53.150;18.160;2023-07-29T08:32:27;100657.98;;;23.41;60.75
77454;BME280;66538;53.150;18.160;2023-07-29T08:34:54;100658.45;;;23.47;59.42
77454;BME280;66538;53.150;18.160;2023-07-29T08:37:20;100656.10;;;23.57;59.70
77454;BME280;66538;53.150;18.160;2023-07-29T08:39:47;100653.17;;;23.70;59.61
77454;BME280;66538;53.150;18.160;2023-07-29T08:42:16;100651.20;;;23.82;58.91
77454;BME280;66538;53.150;18.160;2023-07-29T08:44:45;100645.34;;;23.92;58.03
77454;BME280;66538;53.150;18.160;2023-07-29T08:47:14;100644.40;;;24.01;57.76
77454;BME280;66538;53.150;18.160;2023-07-29T08:49:41;100640.30;;;24.11;57.93
77454;BME280;66538;53.150;18.160;2023-07-29T08:52:09;100640.98;;;24.24;56.49
77454;BME280;66538;53.150;18.160;2023-07-29T08:54:36;100638.42;;;24.34;56.33
77454;BME280;66538;53.150;18.160;2023-07-29T08:57:03;100634.41;;;24.46;56.65
77454;BME280;66538;53.150;18.160;2023-07-29T08:59:31;100633.54;;;24.62;55.85
77454;BME280;66538;53.150;18.160;2023-07-29T09:01:59;100633.23;;;24.73;55.15
77454;BME280;66538;53.150;18.160;2023-07-29T09:04:26;100636.35;;;24.86;54.89
77454;BME280;66538;53.150;18.160;2023-07-29T09:06:53;100629.36;;;24.93;53.60
77454;BME280;66538;53.150;18.160;2023-07-29T09:09:21;100633.62;;;25.04;54.28
77454;BME280;66538;53.150;18.160;2023-07-29T09:11:48;100629.42;;;25.26;53.71
77454;BME280;66538;53.150;18.160;2023-07-29T09:14:17;100627.05;;;25.46;53.23
77454;BME280;66538;53.150;18.160;2023-07-29T09:16:44;100625.54;;;25.63;51.98
77454;BME280;66538;53.150;18.160;2023-07-29T09:19:12;100624.76;;;25.73;51.32
77454;BME280;66538;53.150;18.160;2023-07-29T09:21:39;100624.59;;;25.83;51.27
77454;BME280;66538;53.150;18.160;2023-07-29T09:24:08;100627.17;;;25.98;51.61
77454;BME280;66538;53.150;18.160;2023-07-29T09:26:36;100618.52;;;26.14;50.82
77454;BME280;66538;53.150;18.160;2023-07-29T09:29:05;100614.37;;;26.34;50.89
77454;BME280;66538;53.150;18.160;2023-07-29T09:31:31;100616.97;;;26.56;49.79
77454;BME280;66538;53.150;18.160;2023-07-29T09:34:00;100611.41;;;26.73;49.41
77454;BME280;66538;53.150;18.160;2023-07-29T09:36:29;100611.92;;;26.89;49.18
77454;BME280;66538;53.150;18.160;2023-07-29T09:38:58;100610.04;;;26.99;48.58
77454;BME280;66538;53.150;18.160;2023-07-29T09:41:26;100613.71;;;27.06;47.03
77454;BME280;66538;53.150;18.160;2023-07-29T09:43:58;100610.27;;;27.14;47.96
77454;BME280;66538;53.150;18.160;2023-07-29T09:46:32;100611.15;;;27.26;47.00
77454;BME280;66538;53.150;18.160;2023-07-29T09:49:02;100614.17;;;27.20;46.95
77454;BME280;66538;53.150;18.160;2023-07-29T09:51:29;100611.05;;;27.19;46.68
77454;BME280;66538;53.150;18.160;2023-07-29T09:53:57;100605.08;;;27.23;46.86
77454;BME280;66538;53.150;18.160;2023-07-29T09:56:28;100599.80;;;27.29;46.47
77454;BME280;66538;53.150;18.160;2023-07-29T09:58:56;100595.38;;;27.34;46.34
77454;BME280;66538;53.150;18.160;2023-07-29T10:01:26;100597.38;;;27.43;46.66
77454;BME280;66538;53.150;18.160;2023-07-29T10:03:53;100594.39;;;27.57;46.34
77454;BME280;66538;53.150;18.160;2023-07-29T10:06:23;100589.82;;;27.73;46.18
77454;BME280;66538;53.150;18.160;2023-07-29T10:08:50;100597.33;;;27.91;45.58
77454;BME280;66538;53.150;18.160;2023-07-29T10:11:17;100597.16;;;28.00;45.02
77454;BME280;66538;53.150;18.160;2023-07-29T10:13:48;100591.69;;;28.05;44.72
77454;BME280;66538;53.150;18.160;2023-07-29T10:16:14;100583.54;;;28.01;44.85
77454;BME280;66538;53.150;18.160;2023-07-29T10:18:41;100583.04;;;27.98;44.26
77454;BME280;66538;53.150;18.160;2023-07-29T10:21:09;100582.89;;;28.01;44.54
77454;BME280;66538;53.150;18.160;2023-07-29T10:23:42;100582.43;;;28.04;44.50
77454;BME280;66538;53.150;18.160;2023-07-29T10:26:11;100574.60;;;28.14;44.92
77454;BME280;66538;53.150;18.160;2023-07-29T10:28:46;100576.98;;;28.14;44.15
77454;BME280;66538;53.150;18.160;2023-07-29T10:31:16;100568.83;;;28.10;43.56
77454;BME280;66538;53.150;18.160;2023-07-29T10:33:44;100569.38;;;28.22;43.25
77454;BME280;66538;53.150;18.160;2023-07-29T10:36:11;100563.20;;;28.30;42.33
77454;BME280;66538;53.150;18.160;2023-07-29T10:38:39;100571.63;;;28.39;42.64
77454;BME280;66538;53.150;18.160;2023-07-29T10:41:06;100573.80;;;28.56;42.51
77454;BME280;66538;53.150;18.160;2023-07-29T10:43:35;100575.23;;;28.73;42.50
77454;BME280;66538;53.150;18.160;2023-07-29T10:48:56;100568.88;;;29.01;42.09
77454;BME280;66538;53.150;18.160;2023-07-29T10:51:30;100570.91;;;29.30;41.50
77454;BME280;66538;53.150;18.160;2023-07-29T10:54:03;100563.18;;;29.42;41.14
77454;BME280;66538;53.150;18.160;2023-07-29T10:56:35;100563.25;;;29.47;41.33
77454;BME280;66538;53.150;18.160;2023-07-29T11:01:41;100557.85;;;29.61;40.39
77454;BME280;66538;53.150;18.160;2023-07-29T11:09:57;100543.67;;;29.83;40.29
77454;BME280;66538;53.150;18.160;2023-07-29T11:12:37;100541.74;;;29.92;39.10
77454;BME280;66538;53.150;18.160;2023-07-29T11:15:15;100540.68;;;30.00;39.07
77454;BME280;66538;53.150;18.160;2023-07-29T11:17:56;100532.44;;;30.04;39.06
77454;BME280;66538;53.150;18.160;2023-07-29T11:20:31;100531.06;;;30.16;39.04
77454;BME280;66538;53.150;18.160;2023-07-29T11:23:00;100521.21;;;30.24;39.16
77454;BME280;66538;53.150;18.160;2023-07-29T11:25:29;100512.15;;;30.27;38.92
77454;BME280;66538;53.150;18.160;2023-07-29T11:27:58;100514.77;;;30.34;39.12
77454;BME280;66538;53.150;18.160;2023-07-29T11:30:25;100513.81;;;30.51;38.47
77454;BME280;66538;53.150;18.160;2023-07-29T11:32:57;100509.42;;;30.64;37.13
77454;BME280;66538;53.150;18.160;2023-07-29T11:35:25;100507.70;;;30.74;37.58
77454;BME280;66538;53.150;18.160;2023-07-29T11:37:53;100504.98;;;30.86;37.22
77454;BME280;66538;53.150;18.160;2023-07-29T11:40:21;100499.45;;;31.00;36.92
77454;BME280;66538;53.150;18.160;2023-07-29T11:42:50;100494.76;;;31.16;36.55
77454;BME280;66538;53.150;18.160;2023-07-29T11:45:19;100491.15;;;31.29;36.24
77454;BME280;66538;53.150;18.160;2023-07-29T11:47:46;100493.86;;;31.41;35.86
77454;BME280;66538;53.150;18.160;2023-07-29T11:50:14;100488.65;;;31.48;35.80
77454;BME280;66538;53.150;18.160;2023-07-29T11:52:43;100484.61;;;31.61;35.92
77454;BME280;66538;53.150;18.160;2023-07-29T11:55:12;100483.02;;;31.67;35.48
77454;BME280;66538;53.150;18.160;2023-07-29T11:57:39;100479.49;;;31.74;34.97
77454;BME280;66538;53.150;18.160;2023-07-29T12:00:10;100471.10;;;31.82;34.91
77454;BME280;66538;53.150;18.160;2023-07-29T12:02:42;100473.02;;;31.97;35.14
77454;BME280;66538;53.150;18.160;2023-07-29T12:05:14;100471.45;;;32.01;35.02
77454;BME280;66538;53.150;18.160;2023-07-29T12:07:43;100470.07;;;32.02;34.76
77454;BME280;66538;53.150;18.160;2023-07-29T12:10:11;100466.35;;;32.04;34.30
77454;BME280;66538;53.150;18.160;2023-07-29T12:12:45;100462.29;;;31.88;35.02
77454;BME280;66538;53.150;18.160;2023-07-29T12:15:12;100459.79;;;31.72;34.93
77454;BME280;66538;53.150;18.160;2023-07-29T12:17:40;100454.22;;;31.60;35.48
77454;BME280;66538;53.150;18.160;2023-07-29T12:20:10;100445.85;;;31.79;35.79
77454;BME280;66538;53.150;18.160;2023-07-29T12:22:37;100438.73;;;31.98;35.18
77454;BME280;66538;53.150;18.160;2023-07-29T12:25:04;100433.82;;;32.26;34.97
77454;BME280;66538;53.150;18.160;2023-07-29T12:27:31;100428.14;;;32.43;34.87
77454;BME280;66538;53.150;18.160;2023-07-29T12:30:01;100425.56;;;32.60;34.85
77454;BME280;66538;53.150;18.160;2023-07-29T12:32:30;100427.13;;;32.69;34.30
77454;BME280;66538;53.150;18.160;2023-07-29T12:34:56;100420.81;;;32.56;34.17
77454;BME280;66538;53.150;18.160;2023-07-29T12:37:31;100412.95;;;32.44;34.61
77454;BME280;66538;53.150;18.160;2023-07-29T12:39:58;100417.67;;;32.33;34.47
77454;BME280;66538;53.150;18.160;2023-07-29T12:42:25;100421.73;;;32.22;33.99
77454;BME280;66538;53.150;18.160;2023-07-29T12:44:51;100415.16;;;32.21;34.53
77454;BME280;66538;53.150;18.160;2023-07-29T12:47:18;100406.46;;;32.31;34.43
77454;BME280;66538;53.150;18.160;2023-07-29T12:49:45;100406.67;;;32.45;34.43
77454;BME280;66538;53.150;18.160;2023-07-29T12:52:11;100402.77;;;32.80;34.15
77454;BME280;66538;53.150;18.160;2023-07-29T12:54:38;100397.55;;;33.00;33.81
77454;BME280;66538;53.150;18.160;2023-07-29T12:57:06;100401.44;;;33.26;33.32